createdAt,value
2019-03-16T00:01:57.004Z,2.95
2019-03-16T00:04:19.600Z,2.52
2019-03-16T00:06:49.362Z,2.83
2019-03-16T00:09:19.094Z,2.42
2019-03-16T00:11:48.905Z,2.33
2019-03-16T00:14:19.691Z,2.40
2019-03-16T00:16:49.482Z,2.50
2019-03-16T00:19:19.219Z,2.60
2019-03-16T00:21:48.983Z,2.05
2019-03-16T00:24:18.724Z,2.75
2019-03-16T00:26:48.446Z,2.67
2019-03-16T00:29:18.175Z,2.50
2019-03-16T00:31:51.643Z,2.37
2019-03-16T00:34:21.376Z,2.22
2019-03-16T00:36:51.147Z,2.10
2019-03-16T00:39:20.867Z,2.35
2019-03-16T00:41:51.483Z,2.17
2019-03-16T00:44:21.239Z,2.05
2019-03-16T00:46:51.008Z,2.10
2019-03-16T00:49:20.742Z,1.65
2019-03-16T00:51:50.489Z,2.17
2019-03-16T00:54:20.222Z,2.00
2019-03-16T00:56:50.843Z,1.87
2019-03-16T00:59:20.718Z,3.12
2019-03-16T01:01:50.454Z,2.20
2019-03-16T01:04:20.225Z,2.52
2019-03-16T01:06:49.943Z,2.00
2019-03-16T01:09:19.671Z,2.60
2019-03-16T01:11:49.397Z,2.05
2019-03-16T01:14:19.127Z,1.77
2019-03-16T01:16:49.881Z,2.20
2019-03-16T01:19:19.618Z,1.67
2019-03-16T01:21:49.342Z,2.30
2019-03-16T01:24:19.074Z,2.00
2019-03-16T01:26:48.799Z,1.90
2019-03-16T01:29:18.567Z,2.85
2019-03-16T01:31:48.283Z,1.55
2019-03-16T01:34:18.042Z,1.80
2019-03-16T01:36:47.771Z,1.65
2019-03-16T01:39:17.506Z,1.50
2019-03-16T01:41:47.243Z,1.40
2019-03-16T01:44:17.755Z,1.82
2019-03-16T01:46:47.535Z,2.05
2019-03-16T01:49:17.250Z,1.57
2019-03-16T01:51:47.014Z,1.75
2019-03-16T01:54:16.744Z,1.90
2019-03-16T01:56:46.480Z,1.57
2019-03-16T01:59:16.207Z,1.67
2019-03-16T02:01:49.088Z,1.62
2019-03-16T02:04:17.414Z,1.92
2019-03-16T02:06:47.155Z,1.77
2019-03-16T02:09:16.930Z,2.58
2019-03-16T02:11:46.662Z,2.10
2019-03-16T02:14:16.391Z,2.45
2019-03-16T02:16:46.118Z,2.00
2019-03-16T02:19:15.842Z,2.12
2019-03-16T02:21:45.697Z,2.35
2019-03-16T02:24:15.528Z,1.77
2019-03-16T02:26:45.294Z,1.90
2019-03-16T02:29:16.106Z,1.90
2019-03-16T02:31:45.886Z,1.77
2019-03-16T02:34:15.728Z,1.57
2019-03-16T02:36:50.872Z,2.00
2019-03-16T02:39:20.590Z,2.15
2019-03-16T02:41:50.317Z,2.20
2019-03-16T02:44:20.046Z,1.57
2019-03-16T02:46:49.776Z,2.42
2019-03-16T02:49:20.559Z,2.17
2019-03-16T02:51:50.290Z,1.90
2019-03-16T02:54:20.061Z,1.80
2019-03-16T02:56:49.781Z,1.80
2019-03-16T02:59:19.515Z,2.72
2019-03-16T03:01:50.253Z,2.05
2019-03-16T03:04:19.985Z,3.27
2019-03-16T03:06:49.787Z,2.10
2019-03-16T03:09:19.522Z,1.67
2019-03-16T03:11:49.241Z,2.22
2019-03-16T03:14:18.968Z,2.50
2019-03-16T03:16:48.696Z,2.25
2019-03-16T03:19:18.485Z,2.05
2019-03-16T03:21:48.219Z,1.47
2019-03-16T03:24:18.005Z,1.60
2019-03-16T03:26:47.728Z,1.80
2019-03-16T03:29:17.467Z,1.55
2019-03-16T03:31:47.193Z,2.20
2019-03-16T03:34:16.985Z,2.52
2019-03-16T03:36:46.692Z,1.92
2019-03-16T03:39:16.416Z,2.08
2019-03-16T03:41:46.157Z,1.90
2019-03-16T03:44:15.891Z,2.12
2019-03-16T03:46:45.654Z,1.50
2019-03-16T03:49:15.382Z,2.17
2019-03-16T03:51:45.142Z,1.60
2019-03-16T03:54:14.873Z,1.57
2019-03-16T03:56:44.609Z,2.25
2019-03-16T03:59:14.424Z,1.67
2019-03-16T04:01:44.183Z,1.82
2019-03-16T04:04:15.995Z,2.08
2019-03-16T04:06:45.334Z,1.82
2019-03-16T04:09:15.042Z,1.62
2019-03-16T04:11:44.784Z,2.00
2019-03-16T04:14:14.507Z,2.27
2019-03-16T04:16:44.248Z,2.12
2019-03-16T04:19:14.021Z,2.15
2019-03-16T04:21:43.739Z,2.08
2019-03-16T04:24:13.479Z,1.85
2019-03-16T04:26:43.212Z,1.60
2019-03-16T04:29:13.095Z,2.00
2019-03-16T04:31:42.850Z,1.55
2019-03-16T04:34:12.572Z,2.10
2019-03-16T04:36:42.575Z,1.77
2019-03-16T04:39:12.314Z,2.12
2019-03-16T04:41:42.311Z,2.20
2019-03-16T04:44:12.083Z,2.30
2019-03-16T04:46:42.819Z,2.50
2019-03-16T04:49:12.602Z,1.95
2019-03-16T04:51:42.330Z,2.52
2019-03-16T04:54:12.059Z,2.47
2019-03-16T04:56:41.819Z,2.20
2019-03-16T04:59:11.542Z,1.72
2019-03-16T05:01:41.264Z,1.92
2019-03-16T05:04:11.006Z,2.25
2019-03-16T05:06:40.726Z,2.25
2019-03-16T05:09:10.491Z,2.25
2019-03-16T05:11:40.235Z,2.02
2019-03-16T05:14:10.003Z,2.07
2019-03-16T05:16:39.747Z,1.87
2019-03-16T05:19:09.776Z,1.90
2019-03-16T05:21:45.219Z,2.27
2019-03-16T05:24:15.000Z,2.75
2019-03-16T05:26:44.719Z,1.90
2019-03-16T05:29:14.456Z,2.25
2019-03-16T05:31:44.183Z,2.33
2019-03-16T05:34:13.955Z,2.75
2019-03-16T05:36:43.691Z,3.10
2019-03-16T05:39:13.436Z,2.70
2019-03-16T05:41:43.175Z,2.45
2019-03-16T05:44:12.902Z,2.10
2019-03-16T05:46:42.667Z,3.08
2019-03-16T05:49:12.390Z,2.00
2019-03-16T05:51:42.177Z,2.17
2019-03-16T05:54:11.897Z,3.17
2019-03-16T05:56:41.926Z,2.08
2019-03-16T05:59:11.655Z,2.42
2019-03-16T06:01:41.379Z,2.58
2019-03-16T06:04:11.145Z,3.60
2019-03-16T06:06:40.878Z,2.52
2019-03-16T06:09:10.611Z,2.45
2019-03-16T06:11:40.340Z,2.77
2019-03-16T06:14:10.075Z,2.67
2019-03-16T06:16:39.837Z,2.27
2019-03-16T06:19:09.559Z,2.47
2019-03-16T06:21:39.285Z,2.58
2019-03-16T06:24:09.034Z,3.22
2019-03-16T06:26:38.748Z,2.25
2019-03-16T06:29:08.534Z,2.92
2019-03-16T06:31:38.296Z,3.08
2019-03-16T06:34:08.071Z,2.45
2019-03-16T06:36:37.787Z,3.02
2019-03-16T06:39:07.847Z,2.98
2019-03-16T06:41:37.590Z,2.52
2019-03-16T06:44:07.330Z,4.17
2019-03-16T06:46:37.067Z,3.33
2019-03-16T06:49:06.838Z,2.77
2019-03-16T06:51:36.565Z,3.05
2019-03-16T06:54:06.298Z,3.42
2019-03-16T06:56:36.050Z,3.20
2019-03-16T06:59:05.771Z,2.70
2019-03-16T07:01:35.590Z,3.00
2019-03-16T07:04:05.713Z,3.50
2019-03-16T07:06:35.498Z,3.40
2019-03-16T07:09:07.434Z,3.33
2019-03-16T07:11:38.402Z,3.70
2019-03-16T07:14:08.122Z,3.17
2019-03-16T07:16:37.894Z,3.77
2019-03-16T07:19:07.632Z,4.35
2019-03-16T07:21:37.350Z,3.50
2019-03-16T07:24:07.083Z,4.47
2019-03-16T07:26:36.819Z,3.75
2019-03-16T07:29:06.682Z,3.27
2019-03-16T07:31:36.410Z,3.42
2019-03-16T07:34:06.171Z,2.62
2019-03-16T07:36:36.328Z,3.62
2019-03-16T07:39:07.375Z,4.67
2019-03-16T07:41:37.109Z,3.60
2019-03-16T07:44:06.887Z,2.83
2019-03-16T07:46:36.610Z,3.10
2019-03-16T07:49:06.357Z,4.28
2019-03-16T07:51:36.103Z,2.80
2019-03-16T07:54:05.847Z,4.80
2019-03-16T07:56:35.637Z,3.92
2019-03-16T07:59:05.375Z,3.33
2019-03-16T08:01:35.102Z,4.28
2019-03-16T08:04:04.893Z,3.65
2019-03-16T08:06:34.626Z,3.42
2019-03-16T08:09:05.577Z,3.47
2019-03-16T08:11:35.526Z,4.20
2019-03-16T08:14:05.258Z,4.05
2019-03-16T08:16:35.023Z,2.92
2019-03-16T08:19:04.766Z,2.87
2019-03-16T08:21:34.503Z,3.70
2019-03-16T08:24:04.244Z,3.70
2019-03-16T08:26:33.960Z,4.97
2019-03-16T08:29:03.831Z,4.03
2019-03-16T08:31:33.577Z,4.50
2019-03-16T08:34:03.292Z,4.25
2019-03-16T08:36:33.034Z,5.78
2019-03-16T08:39:02.770Z,4.45
2019-03-16T08:41:32.547Z,4.37
2019-03-16T08:44:02.270Z,8.25
2019-03-16T08:46:32.051Z,9.80
2019-03-16T08:49:01.782Z,32.17
2019-03-16T08:51:31.958Z,12.25
2019-03-16T08:54:01.696Z,19.55
2019-03-16T08:56:31.475Z,10.35
2019-03-16T08:59:01.219Z,16.00
2019-03-16T09:01:30.988Z,6.62
2019-03-16T09:04:00.743Z,4.75
2019-03-16T09:06:30.462Z,9.75
2019-03-16T09:09:00.200Z,5.65
2019-03-16T09:11:29.931Z,5.10
2019-03-16T09:13:59.703Z,5.10
2019-03-16T09:16:29.438Z,16.67
2019-03-16T09:18:59.209Z,4.25
2019-03-16T09:21:28.948Z,5.62
2019-03-16T09:23:58.684Z,4.05
2019-03-16T09:26:28.417Z,5.08
2019-03-16T09:29:00.257Z,6.85
2019-03-16T09:31:41.124Z,3.83
2019-03-16T09:34:11.299Z,8.25
2019-03-16T09:36:41.038Z,10.90
2019-03-16T09:39:10.775Z,6.33
2019-03-16T09:41:40.523Z,11.93
2019-03-16T09:44:10.258Z,13.40
2019-03-16T09:46:40.031Z,5.05
2019-03-16T09:49:10.142Z,9.30
2019-03-16T09:51:40.026Z,10.70
2019-03-16T09:54:09.755Z,6.03
2019-03-16T09:56:39.584Z,6.53
2019-03-16T09:59:09.330Z,6.15
2019-03-16T10:01:39.053Z,6.75
2019-03-16T10:04:08.960Z,11.65
2019-03-16T10:06:38.695Z,10.80
2019-03-16T10:09:08.431Z,5.58
2019-03-16T10:11:38.174Z,6.90
2019-03-16T10:14:07.898Z,8.90
2019-03-16T10:16:37.662Z,6.67
2019-03-16T10:19:07.393Z,5.55
2019-03-16T10:21:37.172Z,7.00
2019-03-16T10:24:06.901Z,5.55
2019-03-16T10:26:37.651Z,8.55
2019-03-16T10:29:07.662Z,7.73
2019-03-16T10:31:37.442Z,5.28
2019-03-16T10:34:07.180Z,4.00
2019-03-16T10:36:36.967Z,4.37
2019-03-16T10:39:07.002Z,4.83
2019-03-16T10:41:36.751Z,5.42
2019-03-16T10:44:06.490Z,7.65
2019-03-16T10:46:36.229Z,4.85
2019-03-16T10:49:06.008Z,4.90
2019-03-16T10:51:35.735Z,4.70
2019-03-16T10:54:05.496Z,4.83
2019-03-16T10:56:35.199Z,5.80
2019-03-16T10:59:05.409Z,3.87
2019-03-16T11:01:37.495Z,3.90
2019-03-16T11:04:07.247Z,6.45
2019-03-16T11:06:37.018Z,4.70
2019-03-16T11:09:07.357Z,5.87
2019-03-16T11:11:37.171Z,8.38
2019-03-16T11:14:06.935Z,7.12
2019-03-16T11:16:36.671Z,5.83
2019-03-16T11:19:06.912Z,4.60
2019-03-16T11:21:36.639Z,5.28
2019-03-16T11:24:06.419Z,5.05
2019-03-16T11:26:36.167Z,3.62
2019-03-16T11:29:09.248Z,4.22
2019-03-16T11:31:37.402Z,3.52
2019-03-16T11:34:07.194Z,3.70
2019-03-16T11:36:36.916Z,4.37
2019-03-16T11:39:07.997Z,6.95
2019-03-16T11:41:37.790Z,7.15
2019-03-16T11:44:07.518Z,5.03
2019-03-16T11:46:37.258Z,4.70
2019-03-16T11:49:06.999Z,7.05
2019-03-16T11:51:36.754Z,5.00
2019-03-16T11:54:06.490Z,5.87
2019-03-16T11:56:36.259Z,3.87
2019-03-16T11:59:05.999Z,7.58
2019-03-16T12:01:35.738Z,8.38
2019-03-16T12:04:05.486Z,6.37
2019-03-16T12:06:35.226Z,5.35
2019-03-16T12:09:06.983Z,8.03
2019-03-16T12:14:05.534Z,3.40
2019-03-16T12:16:36.270Z,5.85
2019-03-16T12:19:06.003Z,3.67
2019-03-16T12:21:35.903Z,6.87
2019-03-16T12:24:05.626Z,7.33
2019-03-16T14:05:55.468Z,12.47
2019-03-16T14:28:17.303Z,8.75
2019-03-16T14:30:47.042Z,6.17
2019-03-16T14:33:16.783Z,8.38
2019-03-16T14:35:46.531Z,11.60
2019-03-16T14:38:16.270Z,5.10
2019-03-16T14:40:46.385Z,7.17
2019-03-16T14:43:16.238Z,7.40
2019-03-16T14:45:48.838Z,5.35
2019-03-16T14:48:17.374Z,5.72
2019-03-16T19:19:20.307Z,17.25
2019-03-16T19:21:50.089Z,21.75
2019-03-16T19:24:19.829Z,22.27
2019-03-16T19:26:49.567Z,22.70
2019-03-16T19:29:19.655Z,25.27
2019-03-16T19:31:49.395Z,25.70
2019-03-16T19:34:19.201Z,25.50
2019-03-16T19:36:48.927Z,24.80
2019-03-16T19:39:18.666Z,25.02
2019-03-16T19:41:48.433Z,26.17
2019-03-16T19:44:18.163Z,23.22
2019-03-16T19:46:47.963Z,23.50
2019-03-16T19:49:17.695Z,23.10
2019-03-16T19:51:47.456Z,22.00
2019-03-16T19:54:17.203Z,22.30
2019-03-16T19:56:46.930Z,20.55
2019-03-16T19:59:16.704Z,20.63
2019-03-16T20:01:46.451Z,17.17
2019-03-16T20:04:16.187Z,17.65
2019-03-16T20:06:46.034Z,17.42
2019-03-16T20:09:15.759Z,17.12
2019-03-16T20:11:45.529Z,17.07
2019-03-16T20:14:16.783Z,17.77
2019-03-16T20:16:46.426Z,18.57
2019-03-16T20:19:16.199Z,18.23
2019-03-16T20:21:46.033Z,17.82
2019-03-16T20:24:15.708Z,19.70
2019-03-16T20:26:45.478Z,19.95
2019-03-16T20:29:15.219Z,19.70
2019-03-16T20:31:47.628Z,21.27
2019-03-16T20:34:17.435Z,21.52
2019-03-16T20:36:47.239Z,21.55
2019-03-16T20:39:18.821Z,20.57
2019-03-16T20:41:48.613Z,20.70
2019-03-16T20:44:18.339Z,20.90
2019-03-16T20:46:48.111Z,21.07
2019-03-16T20:49:17.858Z,20.88
2019-03-16T20:51:47.619Z,20.10
2019-03-16T20:54:17.363Z,20.70
2019-03-16T20:56:47.111Z,19.82
2019-03-16T20:59:16.866Z,18.85
2019-03-16T21:01:46.606Z,19.85
2019-03-16T21:04:16.354Z,20.27
2019-03-16T21:06:46.099Z,19.37
2019-03-16T21:09:16.719Z,19.90
2019-03-16T21:11:48.868Z,20.25
2019-03-16T21:14:17.886Z,19.23
2019-03-16T21:16:47.626Z,19.33
2019-03-16T21:19:17.396Z,19.42
2019-03-16T21:21:47.133Z,20.50
2019-03-16T21:24:16.866Z,20.10
2019-03-16T21:26:52.319Z,19.52
2019-03-16T21:29:17.994Z,18.77
2019-03-16T21:31:47.782Z,19.82
2019-03-16T21:34:17.513Z,19.42
2019-03-16T21:36:47.294Z,18.70
2019-03-16T21:39:17.249Z,19.98
2019-03-16T21:41:47.466Z,19.92
2019-03-16T21:44:17.207Z,18.80
2019-03-16T21:46:46.999Z,18.30
2019-03-16T21:49:16.746Z,18.15
2019-03-16T21:51:46.490Z,18.23
2019-03-16T21:54:16.231Z,18.20
2019-03-16T21:56:45.954Z,17.87
2019-03-16T21:59:15.732Z,17.17
2019-03-16T22:01:45.467Z,17.52
2019-03-16T22:04:15.374Z,16.87
2019-03-16T22:06:45.103Z,17.42
2019-03-16T22:09:14.891Z,17.65
2019-03-16T22:11:44.635Z,17.70
2019-03-16T22:14:14.384Z,17.20
2019-03-16T22:16:44.118Z,16.55
2019-03-16T22:19:13.859Z,16.70
2019-03-16T22:21:43.655Z,16.20
2019-03-16T22:24:13.409Z,16.12
2019-03-16T22:26:43.170Z,17.12
2019-03-16T22:29:12.914Z,16.05
2019-03-16T22:31:42.656Z,16.62
2019-03-16T22:34:12.377Z,17.15
2019-03-16T22:36:42.110Z,17.62
2019-03-16T22:39:11.899Z,15.78
2019-03-16T22:41:41.634Z,16.93
2019-03-16T22:44:11.376Z,16.80
2019-03-16T22:46:41.047Z,16.55
2019-03-16T22:49:10.775Z,15.77
2019-03-16T22:51:42.527Z,16.07
2019-03-16T22:54:12.268Z,16.82
2019-03-16T22:56:42.055Z,16.02
2019-03-16T22:59:11.783Z,15.03
2019-03-16T23:01:41.531Z,15.48
2019-03-16T23:04:11.266Z,15.05
2019-03-16T23:06:40.998Z,15.35
2019-03-16T23:09:10.792Z,14.95
2019-03-16T23:11:40.526Z,14.60
2019-03-16T23:14:10.418Z,12.13
2019-03-16T23:16:40.177Z,14.45
2019-03-16T23:19:10.941Z,14.78
2019-03-16T23:21:40.671Z,15.00
2019-03-16T23:24:10.425Z,12.90
2019-03-16T23:26:40.159Z,12.35
2019-03-16T23:29:09.992Z,12.95
2019-03-16T23:34:18.561Z,11.95
2019-03-16T23:36:41.776Z,12.58
2019-03-16T23:39:11.511Z,12.35
2019-03-16T23:41:41.301Z,11.48
2019-03-16T23:44:11.035Z,12.15
2019-03-16T23:46:40.766Z,11.63
2019-03-16T23:49:10.502Z,11.65
2019-03-16T23:51:40.256Z,11.73
2019-03-16T23:54:09.987Z,12.10
2019-03-16T23:56:39.719Z,12.55
2019-03-16T23:59:09.486Z,12.43
